Aviation Digital Data Service (ADDS)

Output produced by METARs form (1307 UTC 19 January 2019)
found at http://www.aviationweather.gov/metar/data/
 
METAR text: FMMI 191300Z 36005KT 320V030 9999 SCT020CB 29/16 Q1014 NOSIG
Conditions at: FMMI (ANTANANARIVO/IVA, KM) observed 1300 UTC 19 January 2019
Temperature: 29.0°C (84°F)
Dewpoint: 16.0°C (61°F) [RH = 45%]
Pressure (altimeter): 29.94 inches Hg (1014.0 mb)
Winds: from the N (360 degrees) at 6 MPH (5 knots; 2.6 m/s)
Visibility: 6 or more miles (10+ km)
Ceiling: at least 12,000 feet AGL
Clouds: scattered clouds at 2000 feet AGL
Weather: no significant weather observed at this time

METAR text: FMMI 191230Z 03007KT 330V070 9999 SCT020CB 29/16 Q1014 NOSIG
Conditions at: FMMI (ANTANANARIVO/IVA, KM) observed 1230 UTC 19 January 2019
Temperature: 29.0°C (84°F)
Dewpoint: 16.0°C (61°F) [RH = 45%]
Pressure (altimeter): 29.94 inches Hg (1014.0 mb)
Winds: from the NNE (30 degrees) at 8 MPH (7 knots; 3.6 m/s)
Visibility: 6 or more miles (10+ km)
Ceiling: at least 12,000 feet AGL
Clouds: scattered clouds at 2000 feet AGL
Weather: no significant weather observed at this time

METAR text: FMMI 191200Z 04008KT 010V090 9999 SCT020CB 29/16 Q1015 NOSIG
Conditions at: FMMI (ANTANANARIVO/IVA, KM) observed 1200 UTC 19 January 2019
Temperature: 29.0°C (84°F)
Dewpoint: 16.0°C (61°F) [RH = 45%]
Pressure (altimeter): 29.97 inches Hg (1015.0 mb)
Winds: from the NE (40 degrees) at 9 MPH (8 knots; 4.1 m/s)
Visibility: 6 or more miles (10+ km)
Ceiling: at least 12,000 feet AGL
Clouds: scattered clouds at 2000 feet AGL
Weather: no significant weather observed at this time

METAR text: FMMI 191130Z 36008KT 330V060 9999 SCT020CB 29/16 Q1015 NOSIG
Conditions at: FMMI (ANTANANARIVO/IVA, KM) observed 1130 UTC 19 January 2019
Temperature: 29.0°C (84°F)
Dewpoint: 16.0°C (61°F) [RH = 45%]
Pressure (altimeter): 29.97 inches Hg (1015.0 mb)
Winds: from the N (360 degrees) at 9 MPH (8 knots; 4.1 m/s)
Visibility: 6 or more miles (10+ km)
Ceiling: at least 12,000 feet AGL
Clouds: scattered clouds at 2000 feet AGL
Weather: no significant weather observed at this time

METAR text: FMMI 191100Z 36010KT 9999 BKN020TCU 28/17 Q1015 NOSIG
Conditions at: FMMI (ANTANANARIVO/IVA, KM) observed 1100 UTC 19 January 2019
Temperature: 28.0°C (82°F)
Dewpoint: 17.0°C (63°F) [RH = 51%]
Pressure (altimeter): 29.97 inches Hg (1015.0 mb)
Winds: from the N (360 degrees) at 12 MPH (10 knots; 5.1 m/s)
Visibility: 6 or more miles (10+ km)
Ceiling: 2000 feet AGL
Clouds: broken clouds at 2000 feet AGL
Weather: no significant weather observed at this time

METAR text: FMMI 191030Z 03007KT 320V090 9999 BKN020TCU 29/18 Q1016 NOSIG
Conditions at: FMMI (ANTANANARIVO/IVA, KM) observed 1030 UTC 19 January 2019
Temperature: 29.0°C (84°F)
Dewpoint: 18.0°C (64°F) [RH = 52%]
Pressure (altimeter): 30.00 inches Hg (1016.0 mb)
Winds: from the NNE (30 degrees) at 8 MPH (7 knots; 3.6 m/s)
Visibility: 6 or more miles (10+ km)
Ceiling: 2000 feet AGL
Clouds: broken clouds at 2000 feet AGL
Weather: no significant weather observed at this time

METAR text: FMMI 191000Z 01006KT 310V060 9999 BKN020TCU 27/17 Q1016 NOSIG
Conditions at: FMMI (ANTANANARIVO/IVA, KM) observed 1000 UTC 19 January 2019
Temperature: 27.0°C (81°F)
Dewpoint: 17.0°C (63°F) [RH = 54%]
Pressure (altimeter): 30.00 inches Hg (1016.0 mb)
Winds: from the N (10 degrees) at 7 MPH (6 knots; 3.1 m/s)
Visibility: 6 or more miles (10+ km)
Ceiling: 2000 feet AGL
Clouds: broken clouds at 2000 feet AGL
Weather: no significant weather observed at this time

METAR text: FMMI 190930Z 02005KT 320V070 9999 BKN020 28/18 Q1017 NOSIG
Conditions at: FMMI (ANTANANARIVO/IVA, KM) observed 0930 UTC 19 January 2019
Temperature: 28.0°C (82°F)
Dewpoint: 18.0°C (64°F) [RH = 55%]
Pressure (altimeter): 30.03 inches Hg (1017.0 mb)
Winds: from the NNE (20 degrees) at 6 MPH (5 knots; 2.6 m/s)
Visibility: 6 or more miles (10+ km)
Ceiling: 2000 feet AGL
Clouds: broken clouds at 2000 feet AGL
Weather: no significant weather observed at this time

METAR text: FMMI 190900Z 03005KT 300V090 9999 BKN020 27/18 Q1017 NOSIG
Conditions at: FMMI (ANTANANARIVO/IVA, KM) observed 0900 UTC 19 January 2019
Temperature: 27.0°C (81°F)
Dewpoint: 18.0°C (64°F) [RH = 58%]
Pressure (altimeter): 30.03 inches Hg (1017.0 mb)
Winds: from the NNE (30 degrees) at 6 MPH (5 knots; 2.6 m/s)
Visibility: 6 or more miles (10+ km)
Ceiling: 2000 feet AGL
Clouds: broken clouds at 2000 feet AGL
Weather: no significant weather observed at this time

METAR text: FMMI 190830Z 02008KT 330V050 9999 SCT020 26/17 Q1017 NOSIG
Conditions at: FMMI (ANTANANARIVO/IVA, KM) observed 0830 UTC 19 January 2019
Temperature: 26.0°C (79°F)
Dewpoint: 17.0°C (63°F) [RH = 58%]
Pressure (altimeter): 30.03 inches Hg (1017.0 mb)
Winds: from the NNE (20 degrees) at 9 MPH (8 knots; 4.1 m/s)
Visibility: 6 or more miles (10+ km)
Ceiling: at least 12,000 feet AGL
Clouds: scattered clouds at 2000 feet AGL
Weather: no significant weather observed at this time

METAR text: FMMI 190800Z 02006KT 330V060 9999 SCT020 26/18 Q1018 NOSIG
Conditions at: FMMI (ANTANANARIVO/IVA, KM) observed 0800 UTC 19 January 2019
Temperature: 26.0°C (79°F)
Dewpoint: 18.0°C (64°F) [RH = 61%]
Pressure (altimeter): 30.06 inches Hg (1018.0 mb)
Winds: from the NNE (20 degrees) at 7 MPH (6 knots; 3.1 m/s)
Visibility: 6 or more miles (10+ km)
Ceiling: at least 12,000 feet AGL
Clouds: scattered clouds at 2000 feet AGL
Weather: no significant weather observed at this time

METAR text: FMMI 190730Z 06005KT 350V150 9999 SCT020 26/17 Q1018 NOSIG
Conditions at: FMMI (ANTANANARIVO/IVA, KM) observed 0730 UTC 19 January 2019
Temperature: 26.0°C (79°F)
Dewpoint: 17.0°C (63°F) [RH = 58%]
Pressure (altimeter): 30.06 inches Hg (1018.0 mb)
Winds: from the ENE (60 degrees) at 6 MPH (5 knots; 2.6 m/s)
Visibility: 6 or more miles (10+ km)
Ceiling: at least 12,000 feet AGL
Clouds: scattered clouds at 2000 feet AGL
Weather: no significant weather observed at this time

METAR text: FMMI 190700Z 07009KT 040V100 9999 SCT020 26/17 Q1018 NOSIG
Conditions at: FMMI (ANTANANARIVO/IVA, KM) observed 0700 UTC 19 January 2019
Temperature: 26.0°C (79°F)
Dewpoint: 17.0°C (63°F) [RH = 58%]
Pressure (altimeter): 30.06 inches Hg (1018.0 mb)
Winds: from the ENE (70 degrees) at 10 MPH (9 knots; 4.6 m/s)
Visibility: 6 or more miles (10+ km)
Ceiling: at least 12,000 feet AGL
Clouds: scattered clouds at 2000 feet AGL
Weather: no significant weather observed at this time

METAR text: FMMI 190630Z 09006KT 040V120 9999 SCT020 25/18 Q1018 NOSIG
Conditions at: FMMI (ANTANANARIVO/IVA, KM) observed 0630 UTC 19 January 2019
Temperature: 25.0°C (77°F)
Dewpoint: 18.0°C (64°F) [RH = 65%]
Pressure (altimeter): 30.06 inches Hg (1018.0 mb)
Winds: from the E (90 degrees) at 7 MPH (6 knots; 3.1 m/s)
Visibility: 6 or more miles (10+ km)
Ceiling: at least 12,000 feet AGL
Clouds: scattered clouds at 2000 feet AGL
Weather: no significant weather observed at this time

METAR text: FMMI 190600Z 10006KT 050V130 9999 FEW020 24/19 Q1018 NOSIG
Conditions at: FMMI (ANTANANARIVO/IVA, KM) observed 0600 UTC 19 January 2019
Temperature: 24.0°C (75°F)
Dewpoint: 19.0°C (66°F) [RH = 74%]
Pressure (altimeter): 30.06 inches Hg (1018.0 mb)
Winds: from the E (100 degrees) at 7 MPH (6 knots; 3.1 m/s)
Visibility: 6 or more miles (10+ km)
Ceiling: at least 12,000 feet AGL
Clouds: few clouds at 2000 feet AGL
Weather: no significant weather observed at this time

METAR text: FMMI 190530Z 09005KT 060V130 9999 FEW020 23/18 Q1018 NOSIG
Conditions at: FMMI (ANTANANARIVO/IVA, KM) observed 0530 UTC 19 January 2019
Temperature: 23.0°C (73°F)
Dewpoint: 18.0°C (64°F) [RH = 73%]
Pressure (altimeter): 30.06 inches Hg (1018.0 mb)
Winds: from the E (90 degrees) at 6 MPH (5 knots; 2.6 m/s)
Visibility: 6 or more miles (10+ km)
Ceiling: at least 12,000 feet AGL
Clouds: few clouds at 2000 feet AGL
Weather: no significant weather observed at this time

METAR text: FMMI 190500Z 04003KT 350V110 9999 BKN020 22/18 Q1018 NOSIG
Conditions at: FMMI (ANTANANARIVO/IVA, KM) observed 0500 UTC 19 January 2019
Temperature: 22.0°C (72°F)
Dewpoint: 18.0°C (64°F) [RH = 78%]
Pressure (altimeter): 30.06 inches Hg (1018.0 mb)
Winds: from the NE (40 degrees) at 3 MPH (3 knots; 1.5 m/s)
Visibility: 6 or more miles (10+ km)
Ceiling: 2000 feet AGL
Clouds: broken clouds at 2000 feet AGL
Weather: no significant weather observed at this time

METAR text: FMMI 190430Z VRB02KT 9999 FEW015 BKN020 21/18 Q1018 NOSIG
Conditions at: FMMI (ANTANANARIVO/IVA, KM) observed 0430 UTC 19 January 2019
Temperature: 21.0°C (70°F)
Dewpoint: 18.0°C (64°F) [RH = 83%]
Pressure (altimeter): 30.06 inches Hg (1018.0 mb)
Winds: variable direction winds at 2 MPH (2 knots; 1.0 m/s)
Visibility: 6 or more miles (10+ km)
Ceiling: 2000 feet AGL
Clouds: few clouds at 1500 feet AGL
broken clouds at 2000 feet AGL
Weather: no significant weather observed at this time

METAR text: FMMI 190400Z VRB01KT 9999 FEW015 BKN020 20/18 Q1018 NOSIG
Conditions at: FMMI (ANTANANARIVO/IVA, KM) observed 0400 UTC 19 January 2019
Temperature: 20.0°C (68°F)
Dewpoint: 18.0°C (64°F) [RH = 88%]
Pressure (altimeter): 30.06 inches Hg (1018.0 mb)
Winds: variable direction winds at 1 MPH (1 knots; 0.5 m/s)
Visibility: 6 or more miles (10+ km)
Ceiling: 2000 feet AGL
Clouds: few clouds at 1500 feet AGL
broken clouds at 2000 feet AGL
Weather: no significant weather observed at this time

METAR text: FMMI 190330Z VRB02KT 9999 FEW010 BKN020 20/18 Q1018 NOSIG
Conditions at: FMMI (ANTANANARIVO/IVA, KM) observed 0330 UTC 19 January 2019
Temperature: 20.0°C (68°F)
Dewpoint: 18.0°C (64°F) [RH = 88%]
Pressure (altimeter): 30.06 inches Hg (1018.0 mb)
Winds: variable direction winds at 2 MPH (2 knots; 1.0 m/s)
Visibility: 6 or more miles (10+ km)
Ceiling: 2000 feet AGL
Clouds: few clouds at 1000 feet AGL
broken clouds at 2000 feet AGL
Weather: no significant weather observed at this time

METAR text: FMMI 190300Z 00000KT 9999 FEW010 BKN020 19/18 Q1018 NOSIG
Conditions at: FMMI (ANTANANARIVO/IVA, KM) observed 0300 UTC 19 January 2019
Temperature: 19.0°C (66°F)
Dewpoint: 18.0°C (64°F) [RH = 94%]
Pressure (altimeter): 30.06 inches Hg (1018.0 mb)
Winds: calm
Visibility: 6 or more miles (10+ km)
Ceiling: 2000 feet AGL
Clouds: few clouds at 1000 feet AGL
broken clouds at 2000 feet AGL
Weather: no significant weather observed at this time

METAR text: FMMI 190230Z VRB02KT 9999 FEW010 BKN020 19/18 Q1018 NOSIG
Conditions at: FMMI (ANTANANARIVO/IVA, KM) observed 0230 UTC 19 January 2019
Temperature: 19.0°C (66°F)
Dewpoint: 18.0°C (64°F) [RH = 94%]
Pressure (altimeter): 30.06 inches Hg (1018.0 mb)
Winds: variable direction winds at 2 MPH (2 knots; 1.0 m/s)
Visibility: 6 or more miles (10+ km)
Ceiling: 2000 feet AGL
Clouds: few clouds at 1000 feet AGL
broken clouds at 2000 feet AGL
Weather: no significant weather observed at this time

METAR text: FMMI 190200Z VRB02KT 9999 FEW010 BKN020 19/18 Q1017 NOSIG
Conditions at: FMMI (ANTANANARIVO/IVA, KM) observed 0200 UTC 19 January 2019
Temperature: 19.0°C (66°F)
Dewpoint: 18.0°C (64°F) [RH = 94%]
Pressure (altimeter): 30.03 inches Hg (1017.0 mb)
Winds: variable direction winds at 2 MPH (2 knots; 1.0 m/s)
Visibility: 6 or more miles (10+ km)
Ceiling: 2000 feet AGL
Clouds: few clouds at 1000 feet AGL
broken clouds at 2000 feet AGL
Weather: no significant weather observed at this time

METAR text: FMMI 190130Z VRB03KT 9999 FEW010 BKN020 19/18 Q1017 NOSIG
Conditions at: FMMI (ANTANANARIVO/IVA, KM) observed 0130 UTC 19 January 2019
Temperature: 19.0°C (66°F)
Dewpoint: 18.0°C (64°F) [RH = 94%]
Pressure (altimeter): 30.03 inches Hg (1017.0 mb)
Winds: variable direction winds at 3 MPH (3 knots; 1.5 m/s)
Visibility: 6 or more miles (10+ km)
Ceiling: 2000 feet AGL
Clouds: few clouds at 1000 feet AGL
broken clouds at 2000 feet AGL
Weather: no significant weather observed at this time

METAR text: FMMI 190100Z 07002KT 9999 FEW010 BKN020 19/18 Q1017 NOSIG
Conditions at: FMMI (ANTANANARIVO/IVA, KM) observed 0100 UTC 19 January 2019
Temperature: 19.0°C (66°F)
Dewpoint: 18.0°C (64°F) [RH = 94%]
Pressure (altimeter): 30.03 inches Hg (1017.0 mb)
Winds: from the ENE (70 degrees) at 2 MPH (2 knots; 1.0 m/s)
Visibility: 6 or more miles (10+ km)
Ceiling: 2000 feet AGL
Clouds: few clouds at 1000 feet AGL
broken clouds at 2000 feet AGL
Weather: no significant weather observed at this time

METAR text: FMMI 190030Z VRB02KT 9999 FEW010 BKN020 18/18 Q1017 NOSIG
Conditions at: FMMI (ANTANANARIVO/IVA, KM) observed 0030 UTC 19 January 2019
Temperature: 18.0°C (64°F)
Dewpoint: 18.0°C (64°F) [RH = 100%]
Pressure (altimeter): 30.03 inches Hg (1017.0 mb)
Winds: variable direction winds at 2 MPH (2 knots; 1.0 m/s)
Visibility: 6 or more miles (10+ km)
Ceiling: 2000 feet AGL
Clouds: few clouds at 1000 feet AGL
broken clouds at 2000 feet AGL
Weather: no significant weather observed at this time

METAR text: FMMI 190000Z VRB01KT 9999 FEW017 BKN020 18/18 Q1017 NOSIG
Conditions at: FMMI (ANTANANARIVO/IVA, KM) observed 0000 UTC 19 January 2019
Temperature: 18.0°C (64°F)
Dewpoint: 18.0°C (64°F) [RH = 100%]
Pressure (altimeter): 30.03 inches Hg (1017.0 mb)
Winds: variable direction winds at 1 MPH (1 knots; 0.5 m/s)
Visibility: 6 or more miles (10+ km)
Ceiling: 2000 feet AGL
Clouds: few clouds at 1700 feet AGL
broken clouds at 2000 feet AGL
Weather: no significant weather observed at this time

METAR text: FMMI 182330Z VRB01KT 9999 FEW017 BKN020 18/17 Q1017 NOSIG
Conditions at: FMMI (ANTANANARIVO/IVA, KM) observed 2330 UTC 18 January 2019
Temperature: 18.0°C (64°F)
Dewpoint: 17.0°C (63°F) [RH = 94%]
Pressure (altimeter): 30.03 inches Hg (1017.0 mb)
Winds: variable direction winds at 1 MPH (1 knots; 0.5 m/s)
Visibility: 6 or more miles (10+ km)
Ceiling: 2000 feet AGL
Clouds: few clouds at 1700 feet AGL
broken clouds at 2000 feet AGL
Weather: no significant weather observed at this time

METAR text: FMMI 182300Z VRB02KT 9999 FEW017 BKN020 18/17 Q1018 NOSIG
Conditions at: FMMI (ANTANANARIVO/IVA, KM) observed 2300 UTC 18 January 2019
Temperature: 18.0°C (64°F)
Dewpoint: 17.0°C (63°F) [RH = 94%]
Pressure (altimeter): 30.06 inches Hg (1018.0 mb)
Winds: variable direction winds at 2 MPH (2 knots; 1.0 m/s)
Visibility: 6 or more miles (10+ km)
Ceiling: 2000 feet AGL
Clouds: few clouds at 1700 feet AGL
broken clouds at 2000 feet AGL
Weather: no significant weather observed at this time

METAR text: FMMI 182230Z 06004KT 9999 FEW017CB BKN020 18/17 Q1018 NOSIG
Conditions at: FMMI (ANTANANARIVO/IVA, KM) observed 2230 UTC 18 January 2019
Temperature: 18.0°C (64°F)
Dewpoint: 17.0°C (63°F) [RH = 94%]
Pressure (altimeter): 30.06 inches Hg (1018.0 mb)
Winds: from the ENE (60 degrees) at 5 MPH (4 knots; 2.1 m/s)
Visibility: 6 or more miles (10+ km)
Ceiling: 2000 feet AGL
Clouds: few clouds at 1700 feet AGL
broken clouds at 2000 feet AGL
Weather: no significant weather observed at this time

METAR text: FMMI 182200Z VRB02KT 9999 -DZ FEW008 FEW017CB BKN020 18/17 Q1018 BECMG NSW
Conditions at: FMMI (ANTANANARIVO/IVA, KM) observed 2200 UTC 18 January 2019
Temperature: 18.0°C (64°F)
Dewpoint: 17.0°C (63°F) [RH = 94%]
Pressure (altimeter): 30.06 inches Hg (1018.0 mb)
Winds: variable direction winds at 2 MPH (2 knots; 1.0 m/s)
Visibility: 6 or more miles (10+ km)
Ceiling: 2000 feet AGL
Clouds: few clouds at 800 feet AGL
few clouds at 1700 feet AGL
broken clouds at 2000 feet AGL
Weather: -DZ  (light drizzle)

METAR text: FMMI 182135Z 00000KT 9999 -DZRA FEW008 FEW017CB BKN020 18/17 Q1019 NOSIG
Conditions at: FMMI (ANTANANARIVO/IVA, KM) observed 2135 UTC 18 January 2019
Temperature: 18.0°C (64°F)
Dewpoint: 17.0°C (63°F) [RH = 94%]
Pressure (altimeter): 30.09 inches Hg (1019.0 mb)
Winds: calm
Visibility: 6 or more miles (10+ km)
Ceiling: 2000 feet AGL
Clouds: few clouds at 800 feet AGL
few clouds at 1700 feet AGL
broken clouds at 2000 feet AGL
Weather: -DZ -RA  (light drizzle, light rain)

METAR text: FMMI 182130Z 36004KT 330V040 9999 -TSRA FEW017CB BKN020 18/17 Q1019 BECMG NSW
Conditions at: FMMI (ANTANANARIVO/IVA, KM) observed 2130 UTC 18 January 2019
Temperature: 18.0°C (64°F)
Dewpoint: 17.0°C (63°F) [RH = 94%]
Pressure (altimeter): 30.09 inches Hg (1019.0 mb)
Winds: from the N (360 degrees) at 5 MPH (4 knots; 2.1 m/s)
Visibility: 6 or more miles (10+ km)
Ceiling: 2000 feet AGL
Clouds: few clouds at 1700 feet AGL
broken clouds at 2000 feet AGL
Weather: -TSRA  (light rain associated with thunderstorm(s))

METAR text: FMMI 182100Z 08008KT 9999 -TSRA FEW017CB BKN020 18/17 Q1019 TEMPO TSRA
Conditions at: FMMI (ANTANANARIVO/IVA, KM) observed 2100 UTC 18 January 2019
Temperature: 18.0°C (64°F)
Dewpoint: 17.0°C (63°F) [RH = 94%]
Pressure (altimeter): 30.09 inches Hg (1019.0 mb)
Winds: from the E (80 degrees) at 9 MPH (8 knots; 4.1 m/s)
Visibility: 6 or more miles (10+ km)
Ceiling: 2000 feet AGL
Clouds: few clouds at 1700 feet AGL
broken clouds at 2000 feet AGL
Weather: -TSRA  (light rain associated with thunderstorm(s))

METAR text: FMMI 182030Z 01005KT 9999 -TSRA FEW017CB BKN020 18/17 Q1019 TEMPO 4000 TSRA
Conditions at: FMMI (ANTANANARIVO/IVA, KM) observed 2030 UTC 18 January 2019
Temperature: 18.0°C (64°F)
Dewpoint: 17.0°C (63°F) [RH = 94%]
Pressure (altimeter): 30.09 inches Hg (1019.0 mb)
Winds: from the N (10 degrees) at 6 MPH (5 knots; 2.6 m/s)
Visibility: 6 or more miles (10+ km)
Ceiling: 2000 feet AGL
Clouds: few clouds at 1700 feet AGL
broken clouds at 2000 feet AGL
Weather: -TSRA  (light rain associated with thunderstorm(s))

METAR text: FMMI 182000Z 04007KT 350V070 9999 -TSRA FEW017CB BKN020 18/17 Q1019 TEMPO 4000 TSRA
Conditions at: FMMI (ANTANANARIVO/IVA, KM) observed 2000 UTC 18 January 2019
Temperature: 18.0°C (64°F)
Dewpoint: 17.0°C (63°F) [RH = 94%]
Pressure (altimeter): 30.09 inches Hg (1019.0 mb)
Winds: from the NE (40 degrees) at 8 MPH (7 knots; 3.6 m/s)
Visibility: 6 or more miles (10+ km)
Ceiling: 2000 feet AGL
Clouds: few clouds at 1700 feet AGL
broken clouds at 2000 feet AGL
Weather: -TSRA  (light rain associated with thunderstorm(s))

METAR text: FMMI 181930Z 04016KT 9999 -TSRA FEW017CB BKN020 19/17 Q1019 TEMPO 4000 TSRA
Conditions at: FMMI (ANTANANARIVO/IVA, KM) observed 1930 UTC 18 January 2019
Temperature: 19.0°C (66°F)
Dewpoint: 17.0°C (63°F) [RH = 88%]
Pressure (altimeter): 30.09 inches Hg (1019.0 mb)
Winds: from the NE (40 degrees) at 18 MPH (16 knots; 8.2 m/s)
Visibility: 6 or more miles (10+ km)
Ceiling: 2000 feet AGL
Clouds: few clouds at 1700 feet AGL
broken clouds at 2000 feet AGL
Weather: -TSRA  (light rain associated with thunderstorm(s))

METAR text: FMMI 181920Z 04017KT 9999 -TSRA FEW017CB BKN020 19/17 Q1019 TEMPO 4000 TSRA
Conditions at: FMMI (ANTANANARIVO/IVA, KM) observed 1920 UTC 18 January 2019
Temperature: 19.0°C (66°F)
Dewpoint: 17.0°C (63°F) [RH = 88%]
Pressure (altimeter): 30.09 inches Hg (1019.0 mb)
Winds: from the NE (40 degrees) at 20 MPH (17 knots; 8.7 m/s)
Visibility: 6 or more miles (10+ km)
Ceiling: 2000 feet AGL
Clouds: few clouds at 1700 feet AGL
broken clouds at 2000 feet AGL
Weather: -TSRA  (light rain associated with thunderstorm(s))

METAR text: FMMI 181907Z 05013KT 010V080 9999 TS FEW017CB BKN020 21/17 Q1019 TEMPO TSRA
Conditions at: FMMI (ANTANANARIVO/IVA, KM) observed 1907 UTC 18 January 2019
Temperature: 21.0°C (70°F)
Dewpoint: 17.0°C (63°F) [RH = 78%]
Pressure (altimeter): 30.09 inches Hg (1019.0 mb)
Winds: from the NE (50 degrees) at 15 MPH (13 knots; 6.7 m/s)
Visibility: 6 or more miles (10+ km)
Ceiling: 2000 feet AGL
Clouds: few clouds at 1700 feet AGL
broken clouds at 2000 feet AGL
Weather: TS  (thunderstorm)

METAR text: FMMI 181900Z 05008KT 9999 -TSRA FEW017CB BKN020 21/19 Q1019 TEMPO 4000 TSRA
Conditions at: FMMI (ANTANANARIVO/IVA, KM) observed 1900 UTC 18 January 2019
Temperature: 21.0°C (70°F)
Dewpoint: 19.0°C (66°F) [RH = 88%]
Pressure (altimeter): 30.09 inches Hg (1019.0 mb)
Winds: from the NE (50 degrees) at 9 MPH (8 knots; 4.1 m/s)
Visibility: 6 or more miles (10+ km)
Ceiling: 2000 feet AGL
Clouds: few clouds at 1700 feet AGL
broken clouds at 2000 feet AGL
Weather: -TSRA  (light rain associated with thunderstorm(s))

METAR text: FMMI 181834Z 08005KT 040V130 9999 -TSRA FEW020CB BKN023 22/19 Q1018 TEMPO 4000 TSRA
Conditions at: FMMI (ANTANANARIVO/IVA, KM) observed 1834 UTC 18 January 2019
Temperature: 22.0°C (72°F)
Dewpoint: 19.0°C (66°F) [RH = 83%]
Pressure (altimeter): 30.06 inches Hg (1018.0 mb)
Winds: from the E (80 degrees) at 6 MPH (5 knots; 2.6 m/s)
Visibility: 6 or more miles (10+ km)
Ceiling: 2300 feet AGL
Clouds: few clouds at 2000 feet AGL
broken clouds at 2300 feet AGL
Weather: -TSRA  (light rain associated with thunderstorm(s))

METAR text: FMMI 181830Z 14005KT 110V170 9999 -RA VCTS FEW020CB BKN023 22/18 Q1018 TEMPO TSRA
Conditions at: FMMI (ANTANANARIVO/IVA, KM) observed 1830 UTC 18 January 2019
Temperature: 22.0°C (72°F)
Dewpoint: 18.0°C (64°F) [RH = 78%]
Pressure (altimeter): 30.06 inches Hg (1018.0 mb)
Winds: from the SE (140 degrees) at 6 MPH (5 knots; 2.6 m/s)
Visibility: 6 or more miles (10+ km)
Ceiling: 2300 feet AGL
Clouds: few clouds at 2000 feet AGL
broken clouds at 2300 feet AGL
Weather: -RA VCTS  (light rain, thunderstorm in vicinity)

METAR text: FMMI 181800Z 21004KT 180V250 9999 VCTS FEW020CB BKN023 23/18 Q1018 NOSIG
Conditions at: FMMI (ANTANANARIVO/IVA, KM) observed 1800 UTC 18 January 2019
Temperature: 23.0°C (73°F)
Dewpoint: 18.0°C (64°F) [RH = 73%]
Pressure (altimeter): 30.06 inches Hg (1018.0 mb)
Winds: from the SSW (210 degrees) at 5 MPH (4 knots; 2.1 m/s)
Visibility: 6 or more miles (10+ km)
Ceiling: 2300 feet AGL
Clouds: few clouds at 2000 feet AGL
broken clouds at 2300 feet AGL
Weather: VCTS  (thunderstorm in vicinity)

METAR text: FMMI 181730Z 23003KT 200V260 9999 VCTS FEW020CB BKN023 23/18 Q1017 NOSIG
Conditions at: FMMI (ANTANANARIVO/IVA, KM) observed 1730 UTC 18 January 2019
Temperature: 23.0°C (73°F)
Dewpoint: 18.0°C (64°F) [RH = 73%]
Pressure (altimeter): 30.03 inches Hg (1017.0 mb)
Winds: from the SW (230 degrees) at 3 MPH (3 knots; 1.5 m/s)
Visibility: 6 or more miles (10+ km)
Ceiling: 2300 feet AGL
Clouds: few clouds at 2000 feet AGL
broken clouds at 2300 feet AGL
Weather: VCTS  (thunderstorm in vicinity)

METAR text: FMMI 181700Z 25003KT 210V300 9999 VCTS FEW020CB BKN023 23/17 Q1017 NOSIG
Conditions at: FMMI (ANTANANARIVO/IVA, KM) observed 1700 UTC 18 January 2019
Temperature: 23.0°C (73°F)
Dewpoint: 17.0°C (63°F) [RH = 69%]
Pressure (altimeter): 30.03 inches Hg (1017.0 mb)
Winds: from the WSW (250 degrees) at 3 MPH (3 knots; 1.5 m/s)
Visibility: 6 or more miles (10+ km)
Ceiling: 2300 feet AGL
Clouds: few clouds at 2000 feet AGL
broken clouds at 2300 feet AGL
Weather: VCTS  (thunderstorm in vicinity)

METAR text: FMMI 181630Z 27004KT 230V300 9999 VCTSSHRA SCT020CB SCT023 23/18 Q1017 NOSIG
Conditions at: FMMI (ANTANANARIVO/IVA, KM) observed 1630 UTC 18 January 2019
Temperature: 23.0°C (73°F)
Dewpoint: 18.0°C (64°F) [RH = 73%]
Pressure (altimeter): 30.03 inches Hg (1017.0 mb)
Winds: from the W (270 degrees) at 5 MPH (4 knots; 2.1 m/s)
Visibility: 6 or more miles (10+ km)
Ceiling: at least 12,000 feet AGL
Clouds: scattered clouds at 2000 feet AGL
scattered clouds at 2300 feet AGL
Weather: VCTS SHRA  (thunderstorm in vicinity, rain showers)

METAR text: FMMI 181600Z 27006KT 9999 VCTS SHRA SCT020CB SCT023 23/17 Q1016 TEMPO TSRA
Conditions at: FMMI (ANTANANARIVO/IVA, KM) observed 1600 UTC 18 January 2019
Temperature: 23.0°C (73°F)
Dewpoint: 17.0°C (63°F) [RH = 69%]
Pressure (altimeter): 30.00 inches Hg (1016.0 mb)
Winds: from the W (270 degrees) at 7 MPH (6 knots; 3.1 m/s)
Visibility: 6 or more miles (10+ km)
Ceiling: at least 12,000 feet AGL
Clouds: scattered clouds at 2000 feet AGL
scattered clouds at 2300 feet AGL
Weather: VCTS SHRA  (thunderstorm in vicinity, rain showers)

METAR text: FMMI 181530Z 27006KT 210V290 9999 VCSH SCT020CB SCT023 24/17 Q1015 NOSIG
Conditions at: FMMI (ANTANANARIVO/IVA, KM) observed 1530 UTC 18 January 2019
Temperature: 24.0°C (75°F)
Dewpoint: 17.0°C (63°F) [RH = 65%]
Pressure (altimeter): 29.97 inches Hg (1015.0 mb)
Winds: from the W (270 degrees) at 7 MPH (6 knots; 3.1 m/s)
Visibility: 6 or more miles (10+ km)
Ceiling: at least 12,000 feet AGL
Clouds: scattered clouds at 2000 feet AGL
scattered clouds at 2300 feet AGL
Weather: VCSH  (showers in vicinity)

METAR text: FMMI 181500Z 28007KT 250V310 9999 SCT020CB 25/17 Q1015 NOSIG
Conditions at: FMMI (ANTANANARIVO/IVA, KM) observed 1500 UTC 18 January 2019
Temperature: 25.0°C (77°F)
Dewpoint: 17.0°C (63°F) [RH = 61%]
Pressure (altimeter): 29.97 inches Hg (1015.0 mb)
Winds: from the W (280 degrees) at 8 MPH (7 knots; 3.6 m/s)
Visibility: 6 or more miles (10+ km)
Ceiling: at least 12,000 feet AGL
Clouds: scattered clouds at 2000 feet AGL
Weather: no significant weather observed at this time

METAR text: FMMI 181430Z 28010KT 230V310 9999 SCT020CB 27/17 Q1015 NOSIG
Conditions at: FMMI (ANTANANARIVO/IVA, KM) observed 1430 UTC 18 January 2019
Temperature: 27.0°C (81°F)
Dewpoint: 17.0°C (63°F) [RH = 54%]
Pressure (altimeter): 29.97 inches Hg (1015.0 mb)
Winds: from the W (280 degrees) at 12 MPH (10 knots; 5.1 m/s)
Visibility: 6 or more miles (10+ km)
Ceiling: at least 12,000 feet AGL
Clouds: scattered clouds at 2000 feet AGL
Weather: no significant weather observed at this time

METAR text: FMMI 181400Z 29012KT 250V320 9999 SCT020CB 27/18 Q1014 NOSIG
Conditions at: FMMI (ANTANANARIVO/IVA, KM) observed 1400 UTC 18 January 2019
Temperature: 27.0°C (81°F)
Dewpoint: 18.0°C (64°F) [RH = 58%]
Pressure (altimeter): 29.94 inches Hg (1014.0 mb)
Winds: from the WNW (290 degrees) at 14 MPH (12 knots; 6.2 m/s)
Visibility: 6 or more miles (10+ km)
Ceiling: at least 12,000 feet AGL
Clouds: scattered clouds at 2000 feet AGL
Weather: no significant weather observed at this time

METAR text: FMMI 181330Z 30012KT 250V320 9999 SCT020CB SCT050 28/18 Q1014 NOSIG
Conditions at: FMMI (ANTANANARIVO/IVA, KM) observed 1330 UTC 18 January 2019
Temperature: 28.0°C (82°F)
Dewpoint: 18.0°C (64°F) [RH = 55%]
Pressure (altimeter): 29.94 inches Hg (1014.0 mb)
Winds: from the WNW (300 degrees) at 14 MPH (12 knots; 6.2 m/s)
Visibility: 6 or more miles (10+ km)
Ceiling: at least 12,000 feet AGL
Clouds: scattered clouds at 2000 feet AGL
scattered clouds at 5000 feet AGL
Weather: no significant weather observed at this time

METAR text: FMMI 181300Z 28012KT 240V310 9999 SCT020CB SCT050 28/18 Q1015 NOSIG
Conditions at: FMMI (ANTANANARIVO/IVA, KM) observed 1300 UTC 18 January 2019
Temperature: 28.0°C (82°F)
Dewpoint: 18.0°C (64°F) [RH = 55%]
Pressure (altimeter): 29.97 inches Hg (1015.0 mb)
Winds: from the W (280 degrees) at 14 MPH (12 knots; 6.2 m/s)
Visibility: 6 or more miles (10+ km)
Ceiling: at least 12,000 feet AGL
Clouds: scattered clouds at 2000 feet AGL
scattered clouds at 5000 feet AGL
Weather: no significant weather observed at this time

METAR text: FMMI 181230Z 30010KT 260V320 9999 SCT020CB 29/18 Q1015 NOSIG
Conditions at: FMMI (ANTANANARIVO/IVA, KM) observed 1230 UTC 18 January 2019
Temperature: 29.0°C (84°F)
Dewpoint: 18.0°C (64°F) [RH = 52%]
Pressure (altimeter): 29.97 inches Hg (1015.0 mb)
Winds: from the WNW (300 degrees) at 12 MPH (10 knots; 5.1 m/s)
Visibility: 6 or more miles (10+ km)
Ceiling: at least 12,000 feet AGL
Clouds: scattered clouds at 2000 feet AGL
Weather: no significant weather observed at this time

METAR text: FMMI 181200Z 30009KT 9999 SCT020CB 28/18 Q1015 NOSIG
Conditions at: FMMI (ANTANANARIVO/IVA, KM) observed 1200 UTC 18 January 2019
Temperature: 28.0°C (82°F)
Dewpoint: 18.0°C (64°F) [RH = 55%]
Pressure (altimeter): 29.97 inches Hg (1015.0 mb)
Winds: from the WNW (300 degrees) at 10 MPH (9 knots; 4.6 m/s)
Visibility: 6 or more miles (10+ km)
Ceiling: at least 12,000 feet AGL
Clouds: scattered clouds at 2000 feet AGL
Weather: no significant weather observed at this time

METAR text: FMMI 181130Z 02007KT 330V050 9999 SCT020CB 29/15 Q1015 NOSIG
Conditions at: FMMI (ANTANANARIVO/IVA, KM) observed 1130 UTC 18 January 2019
Temperature: 29.0°C (84°F)
Dewpoint: 15.0°C (59°F) [RH = 43%]
Pressure (altimeter): 29.97 inches Hg (1015.0 mb)
Winds: from the NNE (20 degrees) at 8 MPH (7 knots; 3.6 m/s)
Visibility: 6 or more miles (10+ km)
Ceiling: at least 12,000 feet AGL
Clouds: scattered clouds at 2000 feet AGL
Weather: no significant weather observed at this time

METAR text: FMMI 181100Z 05009KT 9999 SCT020CB 29/15 Q1016 NOSIG
Conditions at: FMMI (ANTANANARIVO/IVA, KM) observed 1100 UTC 18 January 2019
Temperature: 29.0°C (84°F)
Dewpoint: 15.0°C (59°F) [RH = 43%]
Pressure (altimeter): 30.00 inches Hg (1016.0 mb)
Winds: from the NE (50 degrees) at 10 MPH (9 knots; 4.6 m/s)
Visibility: 6 or more miles (10+ km)
Ceiling: at least 12,000 feet AGL
Clouds: scattered clouds at 2000 feet AGL
Weather: no significant weather observed at this time

METAR text: FMMI 181030Z 02009KT 330V070 9999 SCT020CB 29/15 Q1016 NOSIG
Conditions at: FMMI (ANTANANARIVO/IVA, KM) observed 1030 UTC 18 January 2019
Temperature: 29.0°C (84°F)
Dewpoint: 15.0°C (59°F) [RH = 43%]
Pressure (altimeter): 30.00 inches Hg (1016.0 mb)
Winds: from the NNE (20 degrees) at 10 MPH (9 knots; 4.6 m/s)
Visibility: 6 or more miles (10+ km)
Ceiling: at least 12,000 feet AGL
Clouds: scattered clouds at 2000 feet AGL
Weather: no significant weather observed at this time

METAR text: FMMI 181000Z 04010KT 360V080 9999 SCT020TCU 28/16 Q1017 NOSIG
Conditions at: FMMI (ANTANANARIVO/IVA, KM) observed 1000 UTC 18 January 2019
Temperature: 28.0°C (82°F)
Dewpoint: 16.0°C (61°F) [RH = 48%]
Pressure (altimeter): 30.03 inches Hg (1017.0 mb)
Winds: from the NE (40 degrees) at 12 MPH (10 knots; 5.1 m/s)
Visibility: 6 or more miles (10+ km)
Ceiling: at least 12,000 feet AGL
Clouds: scattered clouds at 2000 feet AGL
Weather: no significant weather observed at this time

METAR text: FMMI 180930Z 03011KT 360V070 9999 SCT020TCU 28/16 Q1018 NOSIG
Conditions at: FMMI (ANTANANARIVO/IVA, KM) observed 0930 UTC 18 January 2019
Temperature: 28.0°C (82°F)
Dewpoint: 16.0°C (61°F) [RH = 48%]
Pressure (altimeter): 30.06 inches Hg (1018.0 mb)
Winds: from the NNE (30 degrees) at 13 MPH (11 knots; 5.7 m/s)
Visibility: 6 or more miles (10+ km)
Ceiling: at least 12,000 feet AGL
Clouds: scattered clouds at 2000 feet AGL
Weather: no significant weather observed at this time

METAR text: FMMI 180900Z 02009KT 340V060 9999 SCT020TCU 28/17 Q1018 NOSIG
Conditions at: FMMI (ANTANANARIVO/IVA, KM) observed 0900 UTC 18 January 2019
Temperature: 28.0°C (82°F)
Dewpoint: 17.0°C (63°F) [RH = 51%]
Pressure (altimeter): 30.06 inches Hg (1018.0 mb)
Winds: from the NNE (20 degrees) at 10 MPH (9 knots; 4.6 m/s)
Visibility: 6 or more miles (10+ km)
Ceiling: at least 12,000 feet AGL
Clouds: scattered clouds at 2000 feet AGL
Weather: no significant weather observed at this time

METAR text: FMMI 180830Z 01009KT 310V070 9999 SCT020TCU 27/17 Q1018 NOSIG
Conditions at: FMMI (ANTANANARIVO/IVA, KM) observed 0830 UTC 18 January 2019
Temperature: 27.0°C (81°F)
Dewpoint: 17.0°C (63°F) [RH = 54%]
Pressure (altimeter): 30.06 inches Hg (1018.0 mb)
Winds: from the N (10 degrees) at 10 MPH (9 knots; 4.6 m/s)
Visibility: 6 or more miles (10+ km)
Ceiling: at least 12,000 feet AGL
Clouds: scattered clouds at 2000 feet AGL
Weather: no significant weather observed at this time

METAR text: FMMI 180800Z 01010KT 320V060 9999 BKN020TCU 26/17 Q1018 NOSIG
Conditions at: FMMI (ANTANANARIVO/IVA, KM) observed 0800 UTC 18 January 2019
Temperature: 26.0°C (79°F)
Dewpoint: 17.0°C (63°F) [RH = 58%]
Pressure (altimeter): 30.06 inches Hg (1018.0 mb)
Winds: from the N (10 degrees) at 12 MPH (10 knots; 5.1 m/s)
Visibility: 6 or more miles (10+ km)
Ceiling: 2000 feet AGL
Clouds: broken clouds at 2000 feet AGL
Weather: no significant weather observed at this time

METAR text: FMMI 180730Z 35009KT 320V020 9999 BKN020TCU 26/17 Q1018 NOSIG
Conditions at: FMMI (ANTANANARIVO/IVA, KM) observed 0730 UTC 18 January 2019
Temperature: 26.0°C (79°F)
Dewpoint: 17.0°C (63°F) [RH = 58%]
Pressure (altimeter): 30.06 inches Hg (1018.0 mb)
Winds: from the N (350 degrees) at 10 MPH (9 knots; 4.6 m/s)
Visibility: 6 or more miles (10+ km)
Ceiling: 2000 feet AGL
Clouds: broken clouds at 2000 feet AGL
Weather: no significant weather observed at this time

METAR text: FMMI 180700Z 02007KT 350V060 9999 BKN020 26/17 Q1018 NOSIG
Conditions at: FMMI (ANTANANARIVO/IVA, KM) observed 0700 UTC 18 January 2019
Temperature: 26.0°C (79°F)
Dewpoint: 17.0°C (63°F) [RH = 58%]
Pressure (altimeter): 30.06 inches Hg (1018.0 mb)
Winds: from the NNE (20 degrees) at 8 MPH (7 knots; 3.6 m/s)
Visibility: 6 or more miles (10+ km)
Ceiling: 2000 feet AGL
Clouds: broken clouds at 2000 feet AGL
Weather: no significant weather observed at this time

METAR text: FMMI 180630Z 04008KT 9999 FEW020 26/16 Q1018 NOSIG
Conditions at: FMMI (ANTANANARIVO/IVA, KM) observed 0630 UTC 18 January 2019
Temperature: 26.0°C (79°F)
Dewpoint: 16.0°C (61°F) [RH = 54%]
Pressure (altimeter): 30.06 inches Hg (1018.0 mb)
Winds: from the NE (40 degrees) at 9 MPH (8 knots; 4.1 m/s)
Visibility: 6 or more miles (10+ km)
Ceiling: at least 12,000 feet AGL
Clouds: few clouds at 2000 feet AGL
Weather: no significant weather observed at this time

METAR text: FMMI 180600Z 05008KT 010V090 9999 FEW020 25/16 Q1018 NOSIG
Conditions at: FMMI (ANTANANARIVO/IVA, KM) observed 0600 UTC 18 January 2019
Temperature: 25.0°C (77°F)
Dewpoint: 16.0°C (61°F) [RH = 57%]
Pressure (altimeter): 30.06 inches Hg (1018.0 mb)
Winds: from the NE (50 degrees) at 9 MPH (8 knots; 4.1 m/s)
Visibility: 6 or more miles (10+ km)
Ceiling: at least 12,000 feet AGL
Clouds: few clouds at 2000 feet AGL
Weather: no significant weather observed at this time

METAR text: FMMI 180530Z 06007KT 9999 FEW020 24/17 Q1018 NOSIG
Conditions at: FMMI (ANTANANARIVO/IVA, KM) observed 0530 UTC 18 January 2019
Temperature: 24.0°C (75°F)
Dewpoint: 17.0°C (63°F) [RH = 65%]
Pressure (altimeter): 30.06 inches Hg (1018.0 mb)
Winds: from the ENE (60 degrees) at 8 MPH (7 knots; 3.6 m/s)
Visibility: 6 or more miles (10+ km)
Ceiling: at least 12,000 feet AGL
Clouds: few clouds at 2000 feet AGL
Weather: no significant weather observed at this time

METAR text: FMMI 180500Z VRB03KT 9999 FEW020 24/18 Q1018 NOSIG
Conditions at: FMMI (ANTANANARIVO/IVA, KM) observed 0500 UTC 18 January 2019
Temperature: 24.0°C (75°F)
Dewpoint: 18.0°C (64°F) [RH = 69%]
Pressure (altimeter): 30.06 inches Hg (1018.0 mb)
Winds: variable direction winds at 3 MPH (3 knots; 1.5 m/s)
Visibility: 6 or more miles (10+ km)
Ceiling: at least 12,000 feet AGL
Clouds: few clouds at 2000 feet AGL
Weather: no significant weather observed at this time

METAR text: FMMI 180430Z 06004KT 030V110 9999 FEW017 22/18 Q1018 NOSIG
Conditions at: FMMI (ANTANANARIVO/IVA, KM) observed 0430 UTC 18 January 2019
Temperature: 22.0°C (72°F)
Dewpoint: 18.0°C (64°F) [RH = 78%]
Pressure (altimeter): 30.06 inches Hg (1018.0 mb)
Winds: from the ENE (60 degrees) at 5 MPH (4 knots; 2.1 m/s)
Visibility: 6 or more miles (10+ km)
Ceiling: at least 12,000 feet AGL
Clouds: few clouds at 1700 feet AGL
Weather: no significant weather observed at this time

METAR text: FMMI 180400Z 07007KT 9999 FEW017 21/18 Q1018 NOSIG
Conditions at: FMMI (ANTANANARIVO/IVA, KM) observed 0400 UTC 18 January 2019
Temperature: 21.0°C (70°F)
Dewpoint: 18.0°C (64°F) [RH = 83%]
Pressure (altimeter): 30.06 inches Hg (1018.0 mb)
Winds: from the ENE (70 degrees) at 8 MPH (7 knots; 3.6 m/s)
Visibility: 6 or more miles (10+ km)
Ceiling: at least 12,000 feet AGL
Clouds: few clouds at 1700 feet AGL
Weather: no significant weather observed at this time

METAR text: FMMI 180330Z 06004KT 9999 FEW017 19/17 Q1018 NOSIG
Conditions at: FMMI (ANTANANARIVO/IVA, KM) observed 0330 UTC 18 January 2019
Temperature: 19.0°C (66°F)
Dewpoint: 17.0°C (63°F) [RH = 88%]
Pressure (altimeter): 30.06 inches Hg (1018.0 mb)
Winds: from the ENE (60 degrees) at 5 MPH (4 knots; 2.1 m/s)
Visibility: 6 or more miles (10+ km)
Ceiling: at least 12,000 feet AGL
Clouds: few clouds at 1700 feet AGL
Weather: no significant weather observed at this time

METAR text: FMMI 180300Z 07004KT 9999 FEW017 19/17 Q1017 NOSIG
Conditions at: FMMI (ANTANANARIVO/IVA, KM) observed 0300 UTC 18 January 2019
Temperature: 19.0°C (66°F)
Dewpoint: 17.0°C (63°F) [RH = 88%]
Pressure (altimeter): 30.03 inches Hg (1017.0 mb)
Winds: from the ENE (70 degrees) at 5 MPH (4 knots; 2.1 m/s)
Visibility: 6 or more miles (10+ km)
Ceiling: at least 12,000 feet AGL
Clouds: few clouds at 1700 feet AGL
Weather: no significant weather observed at this time

METAR text: FMMI 180230Z VRB02KT 9999 FEW010 18/17 Q1017 NOSIG
Conditions at: FMMI (ANTANANARIVO/IVA, KM) observed 0230 UTC 18 January 2019
Temperature: 18.0°C (64°F)
Dewpoint: 17.0°C (63°F) [RH = 94%]
Pressure (altimeter): 30.03 inches Hg (1017.0 mb)
Winds: variable direction winds at 2 MPH (2 knots; 1.0 m/s)
Visibility: 6 or more miles (10+ km)
Ceiling: at least 12,000 feet AGL
Clouds: few clouds at 1000 feet AGL
Weather: no significant weather observed at this time

METAR text: FMMI 180200Z 17003KT 9999 FEW010 BKN020 19/17 Q1017 NOSIG
Conditions at: FMMI (ANTANANARIVO/IVA, KM) observed 0200 UTC 18 January 2019
Temperature: 19.0°C (66°F)
Dewpoint: 17.0°C (63°F) [RH = 88%]
Pressure (altimeter): 30.03 inches Hg (1017.0 mb)
Winds: from the S (170 degrees) at 3 MPH (3 knots; 1.5 m/s)
Visibility: 6 or more miles (10+ km)
Ceiling: 2000 feet AGL
Clouds: few clouds at 1000 feet AGL
broken clouds at 2000 feet AGL
Weather: no significant weather observed at this time

METAR text: FMMI 180130Z VRB03KT 9999 FEW010 BKN020 19/17 Q1017 NOSIG
Conditions at: FMMI (ANTANANARIVO/IVA, KM) observed 0130 UTC 18 January 2019
Temperature: 19.0°C (66°F)
Dewpoint: 17.0°C (63°F) [RH = 88%]
Pressure (altimeter): 30.03 inches Hg (1017.0 mb)
Winds: variable direction winds at 3 MPH (3 knots; 1.5 m/s)
Visibility: 6 or more miles (10+ km)
Ceiling: 2000 feet AGL
Clouds: few clouds at 1000 feet AGL
broken clouds at 2000 feet AGL
Weather: no significant weather observed at this time

Forecast for: FMMI (ANTANANARIVO/IVA, KM)
Text: FMMI 191100Z 1912/2018 02008KT 9999 BKN020CB
Forecast period: 1200 to 2000 UTC 19 January 2019
Forecast type: FROM: standard forecast or significant change
Winds: from the NNE (20 degrees) at 9 MPH (8 knots; 4.1 m/s)
Visibility: 6 or more miles 10+ km)
Ceiling: 2000 feet AGL
Clouds: broken clouds at 2000 feet AGL
Weather: no significant weather forecast for this period
Text: PROB40
Forecast period: 1200 to 2200 UTC 19 January 2019
Forecast type: TEMPORARY: The following changes expected for less than half the time period
Visibility: 2.49 miles (4.01 km)
Ceiling: unknown
Clouds: missing
Weather: TSRA  (rain associated with thunderstorm(s))
Text: TEMPO 1912/1922 4000 TSRA
Forecast period: 2000 UTC 19 January 2019 to 0700 UTC 20 January 2019
Forecast type: BECOMING: Conditions expected to become as follows by 2300 UTC 19 January 2019
Winds: from the NNE (20 degrees) at 9 MPH (8 knots; 4.1 m/s)
Visibility: 6 or more miles 10+ km)
Ceiling: 2000 feet AGL
Clouds: few clouds at 700 feet AGL
broken clouds at 2000 feet AGL
Weather: no significant weather forecast for this period
Text: BECMG 1920/1923 FEW007 BKN020
Forecast period: 0700 to 1800 UTC 20 January 2019
Forecast type: BECOMING: Conditions expected to become as follows by 1000 UTC 20 January 2019
Winds: from the NW (320 degrees) at 12 MPH (10 knots; 5.1 m/s)
Visibility: 6 or more miles 10+ km)
Ceiling: at least 12,000 feet AGL
Clouds: scattered clouds at 2000 feet AGL
Weather: no significant weather forecast for this period
Text: BECMG 2007/2010 32010KT SCT020CB
Forecast period: 0900 to 1200 UTC 20 January 2019
Forecast type: TEMPORARY: The following changes expected for less than half the time period
Visibility: 2.49 miles (4.01 km)
Ceiling: unknown
Clouds: missing
Weather: TSRA  (rain associated with thunderstorm(s))